KLBE/LBE METAR and TAF weather

Enter ICAO airport designator
Station Type Date Time Source
KLBE METAR 2022/01/29 12:47 UTC NOAA

KLBE 291247Z 31010KT 10SM BKN018 M14/M17 A3006


Station Type Date Time Source
KLBE Decoded METAR 2022/01/29 12:47 UTC NOAA

Latrobe / Westmorland, PA, United States (KLBE) 40-17N 079-24W
Jan 29, 2022 - 07:47 AM EST / 2022.01.29 1247 UTC
Wind: from the NW (310 degrees) at 12 MPH (10 KT):0
Visibility: 10 mile(s):0
Sky conditions: mostly cloudy
Temperature: 6 F (-14 C)
Windchill: -9 F (-23 C):2
Dew Point: 1 F (-17 C)
Relative Humidity: 77%
Pressure (altimeter): 30.06 in. Hg (1017 hPa)
ob: KLBE 291247Z 31010KT 10SM BKN018 M14/M17 A3006
cycle: 13

Station Type Date Time Source
KLBE TAF 2022/01/29 12:24 UTC NOAA

TAF KLBE 291121Z 2912/3012 33011KT P6SM SCT015
TEMPO 2914/2918 BKN015
FM300000 20004KT P6SM BKN100

Example: see airport list